createdAt,value
2018-07-21T00:00:32.946Z,22.77
2018-07-21T00:01:33.762Z,22.74
2018-07-21T00:02:34.526Z,22.71
2018-07-21T00:03:35.304Z,22.69
2018-07-21T00:04:36.076Z,22.67
2018-07-21T00:05:36.856Z,22.66
2018-07-21T00:06:37.661Z,22.64
2018-07-21T00:07:38.443Z,22.63
2018-07-21T00:08:39.223Z,22.63
2018-07-21T00:09:39.998Z,22.62
2018-07-21T00:10:40.779Z,22.61
2018-07-21T00:11:41.579Z,22.61
2018-07-21T00:12:42.359Z,22.60
2018-07-21T00:13:43.129Z,22.59
2018-07-21T00:14:43.905Z,22.58
2018-07-21T00:15:44.687Z,22.58
2018-07-21T00:17:14.691Z,22.50
2018-07-21T00:18:15.465Z,22.48
2018-07-21T00:19:16.253Z,22.48
2018-07-21T00:20:17.015Z,22.47
2018-07-21T00:21:17.791Z,22.47
2018-07-21T00:22:18.592Z,22.46
2018-07-21T00:23:19.368Z,22.46
2018-07-21T00:24:20.145Z,22.45
2018-07-21T00:25:20.920Z,22.44
2018-07-21T00:26:21.693Z,22.44
2018-07-21T00:27:22.502Z,22.43
2018-07-21T00:28:23.291Z,22.43
2018-07-21T00:29:24.052Z,22.42
2018-07-21T00:30:24.829Z,22.41
2018-07-21T00:31:25.603Z,22.40
2018-07-21T00:32:26.407Z,22.39
2018-07-21T00:33:27.192Z,22.38
2018-07-21T00:34:27.966Z,22.36
2018-07-21T00:35:28.741Z,22.35
2018-07-21T00:36:29.532Z,22.34
2018-07-21T00:37:30.332Z,22.32
2018-07-21T00:38:31.118Z,22.31
2018-07-21T00:39:31.884Z,22.29
2018-07-21T00:40:32.668Z,22.28
2018-07-21T00:41:33.433Z,22.27
2018-07-21T00:42:34.248Z,22.25
2018-07-21T00:43:35.014Z,22.24
2018-07-21T00:44:35.798Z,22.22
2018-07-21T00:45:36.565Z,22.21
2018-07-21T00:46:37.347Z,22.19
2018-07-21T00:47:38.148Z,22.18
2018-07-21T00:48:39.928Z,22.16
2018-07-21T00:49:39.700Z,22.15
2018-07-21T00:50:40.480Z,22.15
2018-07-21T00:51:41.253Z,22.14
2018-07-21T00:52:42.070Z,22.13
2018-07-21T00:53:42.838Z,22.12
2018-07-21T00:54:43.619Z,22.10
2018-07-21T00:55:44.391Z,22.09
2018-07-21T00:56:45.169Z,22.07
2018-07-21T00:57:45.973Z,22.05
2018-07-21T00:58:46.752Z,22.03
2018-07-21T00:59:47.533Z,22.01
2018-07-21T01:00:48.310Z,21.99
2018-07-21T01:01:49.175Z,21.97
2018-07-21T01:02:48.904Z,21.95
2018-07-21T01:03:50.679Z,21.92
2018-07-21T01:04:51.464Z,21.90
2018-07-21T01:05:52.234Z,21.89
2018-07-21T01:06:53.011Z,21.87
2018-07-21T01:07:53.817Z,21.85
2018-07-21T01:08:54.601Z,21.83
2018-07-21T01:09:55.372Z,21.81
2018-07-21T01:10:56.152Z,21.80
2018-07-21T01:11:56.952Z,21.79
2018-07-21T01:12:57.739Z,21.79
2018-07-21T01:13:58.521Z,21.77
2018-07-21T01:14:59.299Z,21.76
2018-07-21T01:16:00.072Z,21.75
2018-07-21T01:17:00.874Z,21.74
2018-07-21T01:18:02.655Z,21.73
2018-07-21T01:19:02.433Z,21.71
2018-07-21T01:20:03.211Z,21.70
2018-07-21T01:21:03.987Z,21.68
2018-07-21T01:22:04.761Z,21.66
2018-07-21T01:23:05.563Z,21.64
2018-07-21T01:24:06.428Z,21.62
2018-07-21T01:25:06.127Z,21.60
2018-07-21T01:26:07.905Z,21.58
2018-07-21T01:27:08.686Z,21.57
2018-07-21T01:28:09.492Z,21.55
2018-07-21T01:29:10.279Z,21.54
2018-07-21T01:30:11.043Z,21.53
2018-07-21T01:31:11.826Z,21.51
2018-07-21T01:32:12.598Z,21.50
2018-07-21T01:33:13.402Z,21.49
2018-07-21T01:34:14.176Z,21.48
2018-07-21T01:35:14.952Z,21.46
2018-07-21T01:36:15.732Z,21.45
2018-07-21T01:37:16.510Z,21.43
2018-07-21T01:38:17.333Z,21.42
2018-07-21T01:39:18.096Z,21.41
2018-07-21T01:40:18.875Z,21.40
2018-07-21T01:41:19.647Z,21.38
2018-07-21T01:42:20.427Z,21.37
2018-07-21T01:43:21.230Z,21.36
2018-07-21T01:44:22.013Z,21.35
2018-07-21T01:45:22.787Z,21.35
2018-07-21T01:46:23.565Z,21.33
2018-07-21T01:47:24.340Z,21.32
2018-07-21T01:48:25.151Z,21.31
2018-07-21T01:49:25.922Z,21.29
2018-07-21T01:50:26.701Z,21.28
2018-07-21T01:51:27.472Z,21.28
2018-07-21T01:52:28.253Z,21.27
2018-07-21T01:53:29.052Z,21.25
2018-07-21T01:54:29.834Z,21.24
2018-07-21T01:55:30.606Z,21.23
2018-07-21T01:56:31.382Z,21.21
2018-07-21T01:57:32.182Z,21.20
2018-07-21T01:58:32.974Z,21.18
2018-07-21T01:59:33.755Z,21.17
2018-07-21T02:00:34.527Z,21.16
2018-07-21T02:01:35.305Z,21.15
2018-07-21T02:02:36.077Z,21.14
2018-07-21T02:03:36.884Z,21.13
2018-07-21T02:04:36.660Z,21.12
2018-07-21T02:05:38.438Z,21.12
2018-07-21T02:06:42.102Z,21.11
2018-07-21T02:07:40.398Z,21.11
2018-07-21T02:08:41.117Z,21.11
2018-07-21T02:19:07.361Z,21.09
2018-07-21T02:20:08.172Z,21.06
2018-07-21T02:21:08.944Z,21.05
2018-07-21T02:22:09.721Z,21.05
2018-07-21T02:23:10.494Z,21.05
2018-07-21T02:24:11.274Z,21.05
2018-07-21T02:25:12.072Z,21.05
2018-07-21T02:26:12.847Z,21.04
2018-07-21T02:27:13.622Z,21.03
2018-07-21T02:28:14.401Z,21.02
2018-07-21T02:29:15.177Z,21.01
2018-07-21T02:30:15.987Z,21.00
2018-07-21T02:31:16.757Z,20.99
2018-07-21T02:32:17.535Z,20.99
2018-07-21T02:33:18.307Z,20.98
2018-07-21T02:34:19.085Z,20.98
2018-07-21T02:35:19.916Z,20.97
2018-07-21T02:36:20.715Z,20.96
2018-07-21T02:37:21.464Z,20.95
2018-07-21T02:38:22.252Z,20.94
2018-07-21T02:39:23.015Z,20.93
2018-07-21T02:40:23.814Z,20.92
2018-07-21T02:41:24.597Z,20.91
2018-07-21T02:42:25.368Z,20.90
2018-07-21T02:43:26.147Z,20.90
2018-07-21T02:44:26.918Z,20.90
2018-07-21T02:45:27.727Z,20.89
2018-07-21T02:46:28.500Z,20.88
2018-07-21T02:47:29.272Z,20.87
2018-07-21T02:48:30.048Z,20.87
2018-07-21T02:49:30.830Z,20.86
2018-07-21T02:50:31.628Z,20.85
2018-07-21T02:51:32.408Z,20.85
2018-07-21T02:52:33.184Z,20.84
2018-07-21T02:53:33.958Z,20.84
2018-07-21T02:54:34.734Z,20.83
2018-07-21T02:55:35.537Z,20.83
2018-07-21T02:56:36.313Z,20.82
2018-07-21T02:57:37.104Z,20.81
2018-07-21T02:58:37.866Z,20.81
2018-07-21T02:59:38.725Z,20.80
2018-07-21T03:00:38.455Z,20.80
2018-07-21T03:01:40.234Z,20.80
2018-07-21T03:02:41.010Z,20.79
2018-07-21T03:03:41.787Z,20.79
2018-07-21T03:04:42.564Z,20.78
2018-07-21T03:05:43.365Z,20.76
2018-07-21T03:06:44.142Z,20.76
2018-07-21T03:07:44.913Z,20.75
2018-07-21T03:08:45.688Z,20.74
2018-07-21T03:09:46.485Z,20.73
2018-07-21T03:10:47.272Z,20.72
2018-07-21T03:11:48.055Z,20.72
2018-07-21T03:12:48.828Z,20.71
2018-07-21T03:13:49.599Z,20.70
2018-07-21T03:14:50.392Z,20.69
2018-07-21T03:15:51.194Z,20.69
2018-07-21T03:16:51.974Z,20.68
2018-07-21T03:17:52.746Z,20.67
2018-07-21T03:18:53.528Z,20.66
2018-07-21T03:19:54.296Z,20.65
2018-07-21T03:20:55.101Z,20.65
2018-07-21T03:21:55.888Z,20.64
2018-07-21T03:22:56.651Z,20.63
2018-07-21T03:23:57.426Z,20.62
2018-07-21T03:24:58.205Z,20.61
2018-07-21T03:25:59.005Z,20.60
2018-07-21T03:26:59.797Z,20.60
2018-07-21T03:28:00.563Z,20.60
2018-07-21T03:29:01.339Z,20.60
2018-07-21T03:30:02.111Z,20.60
2018-07-21T03:31:01.965Z,20.60
2018-07-21T03:32:02.703Z,20.59
2018-07-21T03:33:04.476Z,20.59
2018-07-21T03:34:05.250Z,20.58
2018-07-21T03:35:06.026Z,20.57
2018-07-21T03:36:06.831Z,20.57
2018-07-21T03:37:07.610Z,20.56
2018-07-21T03:38:08.390Z,20.55
2018-07-21T03:39:09.165Z,20.55
2018-07-21T03:40:09.941Z,20.54
2018-07-21T03:41:10.743Z,20.54
2018-07-21T03:42:11.530Z,20.54
2018-07-21T03:43:12.292Z,20.54
2018-07-21T03:44:13.070Z,20.54
2018-07-21T03:45:13.851Z,20.54
2018-07-21T03:46:15.652Z,20.55
2018-07-21T03:47:15.425Z,20.57
2018-07-21T03:48:16.216Z,20.59
2018-07-21T03:49:16.991Z,20.62
2018-07-21T03:50:17.767Z,20.64
2018-07-21T03:51:18.570Z,20.66
2018-07-21T03:52:19.352Z,20.69
2018-07-21T03:53:20.120Z,20.71
2018-07-21T03:54:20.979Z,20.74
2018-07-21T03:55:20.684Z,20.77
2018-07-21T03:56:21.496Z,20.80
2018-07-21T03:57:23.272Z,20.83
2018-07-21T03:58:24.042Z,20.86
2018-07-21T03:59:24.819Z,20.89
2018-07-21T04:00:25.609Z,20.92
2018-07-21T04:01:26.404Z,20.94
2018-07-21T04:02:27.178Z,20.97
2018-07-21T04:03:27.953Z,20.99
2018-07-21T04:04:28.729Z,21.01
2018-07-21T04:05:29.505Z,21.02
2018-07-21T04:06:30.307Z,21.03
2018-07-21T04:07:31.081Z,21.04
2018-07-21T04:08:31.860Z,21.04
2018-07-21T04:09:33.098Z,21.05
2018-07-21T04:10:33.349Z,21.06
2018-07-21T04:11:32.641Z,21.06
2018-07-21T04:22:03.360Z,20.80
2018-07-21T04:23:03.163Z,20.77
2018-07-21T04:24:03.969Z,20.75
2018-07-21T04:25:05.722Z,20.72
2018-07-21T04:26:06.496Z,20.67
2018-07-21T04:27:07.273Z,20.62
2018-07-21T04:28:08.076Z,20.55
2018-07-21T04:29:08.848Z,20.48
2018-07-21T04:30:09.628Z,20.41
2018-07-21T04:31:10.409Z,20.34
2018-07-21T04:32:11.174Z,20.27
2018-07-21T04:33:11.973Z,20.20
2018-07-21T04:34:12.783Z,20.14
2018-07-21T04:35:12.770Z,20.09
2018-07-21T04:36:13.494Z,20.04
2018-07-21T04:37:14.263Z,20.00
2018-07-21T04:38:16.056Z,19.95
2018-07-21T04:39:16.861Z,19.91
2018-07-21T04:40:17.627Z,19.88
2018-07-21T04:41:18.449Z,19.84
2018-07-21T04:42:18.199Z,19.80
2018-07-21T04:43:20.004Z,19.76
2018-07-21T04:44:20.781Z,19.72
2018-07-21T04:45:21.553Z,19.69
2018-07-21T04:46:22.329Z,19.65
2018-07-21T04:47:23.104Z,19.60
2018-07-21T04:48:23.909Z,19.56
2018-07-21T04:49:24.689Z,19.51
2018-07-21T04:50:25.460Z,19.46
2018-07-21T04:51:26.243Z,19.42
2018-07-21T04:52:27.012Z,19.37
2018-07-21T04:53:27.815Z,19.33
2018-07-21T04:54:28.591Z,19.30
2018-07-21T04:55:29.369Z,19.27
2018-07-21T04:56:30.144Z,19.24
2018-07-21T04:57:31.917Z,19.22
2018-07-21T04:58:31.718Z,19.21
2018-07-21T04:59:32.505Z,19.19
2018-07-21T05:00:33.281Z,19.18
2018-07-21T05:01:34.056Z,19.17
2018-07-21T05:02:34.829Z,19.16
2018-07-21T05:03:35.633Z,19.16
2018-07-21T05:04:36.403Z,19.16
2018-07-21T05:05:37.180Z,19.17
2018-07-21T05:06:37.954Z,19.18
2018-07-21T05:07:38.732Z,19.19
2018-07-21T05:08:39.543Z,19.20
2018-07-21T05:09:40.312Z,19.22
2018-07-21T05:10:41.091Z,19.23
2018-07-21T05:11:41.864Z,19.24
2018-07-21T05:12:42.641Z,19.24
2018-07-21T05:13:44.445Z,19.24
2018-07-21T05:14:44.215Z,19.23
2018-07-21T05:15:44.993Z,19.23
2018-07-21T05:16:45.768Z,19.23
2018-07-21T05:17:46.543Z,19.23
2018-07-21T05:18:47.360Z,19.22
2018-07-21T05:19:48.138Z,19.22
2018-07-21T05:20:48.907Z,19.22
2018-07-21T05:21:49.694Z,19.23
2018-07-21T05:22:50.459Z,19.23
2018-07-21T05:23:52.266Z,19.23
2018-07-21T05:24:52.044Z,19.24
2018-07-21T05:25:52.822Z,19.24
2018-07-21T05:26:53.592Z,19.25
2018-07-21T05:27:54.374Z,19.26
2018-07-21T05:28:55.172Z,19.27
2018-07-21T05:29:55.958Z,19.27
2018-07-21T05:30:56.731Z,19.28
2018-07-21T05:31:57.523Z,19.30
2018-07-21T05:32:58.286Z,19.31
2018-07-21T05:33:59.099Z,19.32
2018-07-21T05:34:59.868Z,19.33
2018-07-21T05:36:00.648Z,19.34
2018-07-21T05:37:01.416Z,19.34
2018-07-21T05:38:02.196Z,19.35
2018-07-21T05:39:03.017Z,19.36
2018-07-21T05:40:03.775Z,19.37
2018-07-21T05:41:04.549Z,19.38
2018-07-21T05:42:05.331Z,19.38
2018-07-21T05:43:06.106Z,19.39
2018-07-21T05:44:06.920Z,19.40
2018-07-21T05:45:07.771Z,19.40
2018-07-21T05:46:07.480Z,19.42
2018-07-21T05:47:09.239Z,19.43
2018-07-21T05:48:10.024Z,19.44
2018-07-21T05:49:10.837Z,19.46
2018-07-21T05:50:11.600Z,19.47
2018-07-21T05:51:12.383Z,19.49
2018-07-21T05:52:13.161Z,19.50
2018-07-21T05:53:13.985Z,19.51
2018-07-21T05:54:13.749Z,19.53
2018-07-21T05:55:15.523Z,19.54
2018-07-21T05:56:16.298Z,19.54
2018-07-21T05:57:17.076Z,19.55
2018-07-21T05:58:17.862Z,19.56
2018-07-21T05:59:18.666Z,19.56
2018-07-21T06:00:19.447Z,19.57
2018-07-21T06:01:20.222Z,19.57
2018-07-21T06:02:20.997Z,19.58
2018-07-21T06:03:21.773Z,19.58
2018-07-21T06:04:22.583Z,19.59
2018-07-21T06:05:23.362Z,19.60
2018-07-21T06:06:24.134Z,19.61
2018-07-21T06:07:24.910Z,19.62
2018-07-21T06:08:25.685Z,19.63
2018-07-21T06:09:25.491Z,19.64
2018-07-21T06:10:27.263Z,19.66
2018-07-21T06:11:28.040Z,19.67
2018-07-21T06:12:28.823Z,19.69
2018-07-21T06:13:29.592Z,19.70
2018-07-21T06:14:30.403Z,19.72
2018-07-21T06:15:31.177Z,19.73
2018-07-21T06:16:32.393Z,19.75
2018-07-21T06:17:33.719Z,19.76
2018-07-21T06:18:32.006Z,19.78
2018-07-21T06:20:00.488Z,20.08
2018-07-21T06:21:01.264Z,20.05
2018-07-21T06:22:02.036Z,20.05
2018-07-21T06:23:02.811Z,20.05
2018-07-21T06:24:03.586Z,20.06
2018-07-21T06:25:04.391Z,20.06
2018-07-21T06:26:05.169Z,20.06
2018-07-21T06:27:05.950Z,20.07
2018-07-21T06:28:06.794Z,20.08
2018-07-21T06:29:06.503Z,20.09
2018-07-21T06:30:08.305Z,20.10
2018-07-21T06:31:09.092Z,20.11
2018-07-21T06:32:09.856Z,20.13
2018-07-21T06:33:10.640Z,20.14
2018-07-21T06:34:11.408Z,20.15
2018-07-21T06:35:12.218Z,20.16
2018-07-21T06:36:12.992Z,20.17
2018-07-21T06:37:13.766Z,20.18
2018-07-21T06:38:14.538Z,20.19
2018-07-21T06:39:15.318Z,20.20
2018-07-21T06:40:16.118Z,20.22
2018-07-21T06:41:17.896Z,20.24
2018-07-21T06:42:17.668Z,20.26
2018-07-21T06:43:18.454Z,20.28
2018-07-21T06:44:19.231Z,20.30
2018-07-21T06:45:20.030Z,20.33
2018-07-21T06:46:20.807Z,20.35
2018-07-21T06:47:21.591Z,20.38
2018-07-21T06:48:22.361Z,20.41
2018-07-21T06:49:23.140Z,20.44
2018-07-21T06:50:23.943Z,20.48
2018-07-21T06:51:24.720Z,20.51
2018-07-21T06:52:25.495Z,20.54
2018-07-21T06:53:26.273Z,20.58
2018-07-21T06:54:27.091Z,20.61
2018-07-21T06:55:26.858Z,20.66
2018-07-21T06:56:28.645Z,20.69
2018-07-21T06:57:29.410Z,20.74
2018-07-21T06:58:30.193Z,20.78
2018-07-21T06:59:31.053Z,20.82
2018-07-21T07:00:30.799Z,20.86
2018-07-21T07:01:32.572Z,20.90
2018-07-21T07:02:33.336Z,20.95
2018-07-21T07:03:34.117Z,20.99
2018-07-21T07:04:34.926Z,21.02
2018-07-21T07:05:35.689Z,21.06
2018-07-21T07:06:36.468Z,21.10
2018-07-21T07:07:37.237Z,21.13
2018-07-21T07:08:38.018Z,21.17
2018-07-21T07:09:38.793Z,21.20
2018-07-21T07:10:39.595Z,21.23
2018-07-21T07:11:40.373Z,21.26
2018-07-21T07:12:41.148Z,21.29
2018-07-21T07:13:41.932Z,21.33
2018-07-21T07:14:42.711Z,21.37
2018-07-21T07:15:43.510Z,21.40
2018-07-21T07:16:44.287Z,21.44
2018-07-21T07:17:45.072Z,21.47
2018-07-21T07:18:45.844Z,21.51
2018-07-21T07:19:46.617Z,21.54
2018-07-21T07:20:47.422Z,21.57
2018-07-21T07:21:48.207Z,21.61
2018-07-21T07:22:48.982Z,21.64
2018-07-21T07:23:49.757Z,21.67
2018-07-21T07:24:50.535Z,21.69
2018-07-21T07:25:51.345Z,21.72
2018-07-21T07:26:52.118Z,21.74
2018-07-21T07:27:52.899Z,21.76
2018-07-21T07:28:53.675Z,21.78
2018-07-21T07:29:54.450Z,21.81
2018-07-21T07:30:55.271Z,21.84
2018-07-21T07:31:56.043Z,21.86
2018-07-21T07:32:56.822Z,21.89
2018-07-21T07:33:57.597Z,21.92
2018-07-21T07:34:58.378Z,21.94
2018-07-21T07:35:59.276Z,21.97
2018-07-21T07:36:58.976Z,22.00
2018-07-21T07:38:00.754Z,22.03
2018-07-21T07:39:01.534Z,22.06
2018-07-21T07:40:02.309Z,22.09
2018-07-21T07:41:03.111Z,22.13
2018-07-21T07:42:03.906Z,22.17
2018-07-21T07:43:03.665Z,22.21
2018-07-21T07:44:05.441Z,22.26
2018-07-21T07:45:06.224Z,22.31
2018-07-21T07:46:07.019Z,22.35
2018-07-21T07:47:07.799Z,22.39
2018-07-21T07:48:08.574Z,22.43
2018-07-21T07:49:09.351Z,22.46
2018-07-21T07:50:10.126Z,22.50
2018-07-21T07:51:09.951Z,22.54
2018-07-21T07:52:11.734Z,22.58
2018-07-21T07:53:12.496Z,22.62
2018-07-21T07:54:13.278Z,22.66
2018-07-21T07:55:14.049Z,22.69
2018-07-21T07:56:14.853Z,22.73
2018-07-21T07:57:15.628Z,22.77
2018-07-21T07:58:17.412Z,22.82
2018-07-21T07:59:17.179Z,22.87
2018-07-21T08:00:17.962Z,22.92
2018-07-21T08:01:18.790Z,22.98
2018-07-21T08:02:18.542Z,23.03
2018-07-21T08:03:20.322Z,23.07
2018-07-21T08:04:21.107Z,23.12
2018-07-21T08:05:21.870Z,23.18
2018-07-21T08:06:22.676Z,23.23
2018-07-21T08:07:23.451Z,23.30
2018-07-21T08:08:24.237Z,23.36
2018-07-21T08:09:24.002Z,23.41
2018-07-21T08:10:25.777Z,23.47
2018-07-21T08:11:26.581Z,23.52
2018-07-21T08:12:27.363Z,23.57
2018-07-21T08:13:28.138Z,23.62
2018-07-21T08:14:29.339Z,23.67
2018-07-21T08:15:29.602Z,23.72
2018-07-21T08:16:28.918Z,23.75
2018-07-21T08:17:37.321Z,24.19
2018-07-21T08:18:38.106Z,24.18
2018-07-21T08:19:38.872Z,24.18
2018-07-21T08:20:39.650Z,24.19
2018-07-21T08:21:40.517Z,24.19
2018-07-21T08:22:41.296Z,24.19
2018-07-21T08:23:42.072Z,24.19
2018-07-21T08:24:42.850Z,24.19
2018-07-21T08:25:44.623Z,24.19
2018-07-21T08:26:44.428Z,24.19
2018-07-21T08:27:45.226Z,24.19
2018-07-21T08:28:45.991Z,24.19
2018-07-21T08:29:46.772Z,24.20
2018-07-21T08:30:47.548Z,24.21
2018-07-21T08:31:48.352Z,24.21
2018-07-21T08:32:49.133Z,24.22
2018-07-21T08:33:49.911Z,24.23
2018-07-21T08:34:50.687Z,24.24
2018-07-21T08:35:51.462Z,24.24
2018-07-21T08:36:52.272Z,24.25
2018-07-21T08:37:53.048Z,24.26
2018-07-21T08:38:53.827Z,24.27
2018-07-21T08:39:54.602Z,24.28
2018-07-21T08:40:55.383Z,24.28
2018-07-21T08:41:56.203Z,24.29
2018-07-21T08:42:56.969Z,24.29
2018-07-21T08:43:57.752Z,24.29
2018-07-21T08:44:58.526Z,24.30
2018-07-21T08:45:59.304Z,24.31
2018-07-21T08:47:00.132Z,24.32
2018-07-21T08:48:00.894Z,24.32
2018-07-21T08:49:01.678Z,24.32
2018-07-21T08:50:02.446Z,24.33
2018-07-21T08:51:03.229Z,24.34
2018-07-21T08:52:04.028Z,24.35
2018-07-21T08:53:04.812Z,24.36
2018-07-21T08:54:05.591Z,24.37
2018-07-21T08:55:06.363Z,24.37
2018-07-21T08:56:07.202Z,24.38
2018-07-21T08:57:06.955Z,24.38
2018-07-21T08:58:08.723Z,24.37
2018-07-21T08:59:09.499Z,24.37
2018-07-21T09:00:10.279Z,24.36
2018-07-21T09:01:11.052Z,24.36
2018-07-21T09:02:11.862Z,24.35
2018-07-21T09:03:12.637Z,24.34
2018-07-21T09:04:13.413Z,24.32
2018-07-21T09:05:14.191Z,24.31
2018-07-21T09:06:14.981Z,24.29
2018-07-21T09:07:15.768Z,24.28
2018-07-21T09:08:16.552Z,24.26
2018-07-21T09:09:17.324Z,24.25
2018-07-21T09:10:18.102Z,24.24
2018-07-21T09:11:18.878Z,24.23
2018-07-21T09:12:19.679Z,24.23
2018-07-21T09:13:20.454Z,24.22
2018-07-21T09:14:21.237Z,24.22
2018-07-21T09:15:22.014Z,24.21
2018-07-21T09:16:22.790Z,24.21
2018-07-21T09:17:23.598Z,24.20
2018-07-21T09:18:24.379Z,24.20
2018-07-21T09:19:25.148Z,24.20
2018-07-21T09:20:25.931Z,24.20
2018-07-21T09:21:26.763Z,24.19
2018-07-21T09:22:26.508Z,24.19
2018-07-21T09:23:28.283Z,24.18
2018-07-21T09:24:29.056Z,24.18
2018-07-21T09:25:29.833Z,24.17
2018-07-21T09:26:30.605Z,24.16
2018-07-21T09:27:31.410Z,24.16
2018-07-21T09:28:32.192Z,24.15
2018-07-21T09:29:32.967Z,24.15
2018-07-21T09:30:33.747Z,24.14
2018-07-21T09:31:34.527Z,24.13
2018-07-21T09:32:35.328Z,24.12
2018-07-21T09:33:36.101Z,24.11
2018-07-21T09:34:36.879Z,24.10
2018-07-21T09:35:37.661Z,24.09
2018-07-21T09:36:38.430Z,24.07
2018-07-21T09:37:39.243Z,24.06
2018-07-21T09:38:40.103Z,24.04
2018-07-21T09:39:40.804Z,24.03
2018-07-21T09:40:41.582Z,24.02
2018-07-21T09:41:42.356Z,24.01
2018-07-21T09:42:43.170Z,23.99
2018-07-21T09:43:43.945Z,23.98
2018-07-21T09:44:44.732Z,23.97
2018-07-21T09:45:45.495Z,23.95
2018-07-21T09:46:46.355Z,23.93
2018-07-21T09:47:46.100Z,23.92
2018-07-21T09:48:47.864Z,23.90
2018-07-21T09:49:48.647Z,23.88
2018-07-21T09:50:49.422Z,23.86
2018-07-21T09:51:51.197Z,23.84
2018-07-21T09:52:51.002Z,23.83
2018-07-21T09:53:51.783Z,23.82
2018-07-21T09:54:52.560Z,23.81
2018-07-21T09:55:52.466Z,23.80
2018-07-21T09:56:53.125Z,23.80
2018-07-21T09:57:54.922Z,23.79
2018-07-21T09:58:55.707Z,23.79
2018-07-21T09:59:56.474Z,23.79
2018-07-21T10:00:57.261Z,23.79
2018-07-21T10:01:58.024Z,23.80
2018-07-21T10:02:58.832Z,23.80
2018-07-21T10:03:59.609Z,23.80
2018-07-21T10:05:00.383Z,23.81
2018-07-21T10:06:01.157Z,23.81
2018-07-21T10:07:01.935Z,23.82
2018-07-21T10:08:02.739Z,23.83
2018-07-21T10:09:03.534Z,23.84
2018-07-21T10:10:04.730Z,23.85
2018-07-21T10:13:52.091Z,24.10
2018-07-21T10:14:52.867Z,24.09
2018-07-21T10:15:53.650Z,24.09
2018-07-21T10:16:54.410Z,24.09
2018-07-21T10:17:55.201Z,24.09
2018-07-21T10:18:55.991Z,24.09
2018-07-21T10:19:56.765Z,24.10
2018-07-21T10:20:57.538Z,24.10
2018-07-21T10:21:58.397Z,24.11
2018-07-21T10:22:58.107Z,24.11
2018-07-21T10:23:59.899Z,24.13
2018-07-21T10:25:00.674Z,24.14
2018-07-21T10:26:01.454Z,24.15
2018-07-21T10:27:02.229Z,24.17
2018-07-21T10:28:02.997Z,24.19
2018-07-21T10:29:03.801Z,24.21
2018-07-21T10:30:04.629Z,24.24
2018-07-21T10:31:04.352Z,24.26
2018-07-21T10:32:06.125Z,24.29
2018-07-21T10:33:06.961Z,24.32
2018-07-21T10:34:06.707Z,24.35
2018-07-21T10:35:08.492Z,24.38
2018-07-21T10:36:09.264Z,24.42
2018-07-21T10:37:10.037Z,24.45
2018-07-21T10:38:10.890Z,24.49
2018-07-21T10:39:10.618Z,24.52
2018-07-21T10:40:12.393Z,24.57
2018-07-21T10:41:13.176Z,24.61
2018-07-21T10:42:13.947Z,24.66
2018-07-21T10:43:14.725Z,24.72
2018-07-21T10:44:15.529Z,24.78
2018-07-21T10:45:16.307Z,24.85
2018-07-21T10:46:17.080Z,24.92
2018-07-21T10:47:17.859Z,24.98
2018-07-21T10:48:18.652Z,25.05
2018-07-21T10:49:19.455Z,25.12
2018-07-21T10:50:20.232Z,25.18
2018-07-21T10:51:21.004Z,25.25
2018-07-21T10:52:21.783Z,25.30
2018-07-21T10:53:22.655Z,25.36
2018-07-21T10:54:22.386Z,25.42
2018-07-21T10:55:24.160Z,25.48
2018-07-21T10:56:24.942Z,25.54
2018-07-21T10:57:25.721Z,25.59
2018-07-21T10:58:26.508Z,25.65
2018-07-21T10:59:27.303Z,25.70
2018-07-21T11:00:28.081Z,25.75
2018-07-21T11:01:28.857Z,25.80
2018-07-21T11:02:29.632Z,25.85
2018-07-21T11:03:30.435Z,25.89
2018-07-21T11:04:31.243Z,25.92
2018-07-21T11:05:32.019Z,25.96
2018-07-21T11:06:32.796Z,25.99
2018-07-21T11:07:33.568Z,26.02
2018-07-21T11:08:34.436Z,26.04
2018-07-21T11:09:34.166Z,26.06
2018-07-21T11:10:35.940Z,26.08
2018-07-21T11:11:36.719Z,26.10
2018-07-21T11:12:37.496Z,26.13
2018-07-21T11:13:38.268Z,26.15
2018-07-21T11:14:39.074Z,26.17
2018-07-21T11:15:39.857Z,26.19
2018-07-21T11:16:40.628Z,26.22
2018-07-21T11:17:41.410Z,26.25
2018-07-21T11:18:42.185Z,26.30
2018-07-21T11:19:43.983Z,26.34
2018-07-21T11:20:43.757Z,26.39
2018-07-21T11:21:44.544Z,26.44
2018-07-21T11:22:45.319Z,26.49
2018-07-21T11:23:46.100Z,26.54
2018-07-21T11:24:46.900Z,26.60
2018-07-21T11:25:47.683Z,26.65
2018-07-21T11:26:48.456Z,26.70
2018-07-21T11:27:49.232Z,26.75
2018-07-21T11:28:50.007Z,26.80
2018-07-21T11:29:50.812Z,26.86
2018-07-21T11:30:51.598Z,26.91
2018-07-21T11:31:52.377Z,26.95
2018-07-21T11:32:53.160Z,27.00
2018-07-21T11:33:53.929Z,27.05
2018-07-21T11:34:54.739Z,27.09
2018-07-21T11:35:55.778Z,27.13
2018-07-21T11:36:55.297Z,27.17
2018-07-21T11:37:57.072Z,27.19
2018-07-21T11:38:57.850Z,27.21
2018-07-21T11:39:58.663Z,27.23
2018-07-21T11:40:59.437Z,27.25
2018-07-21T11:42:00.212Z,27.26
2018-07-21T11:43:00.987Z,27.28
2018-07-21T11:44:01.763Z,27.29
2018-07-21T11:45:02.590Z,27.31
2018-07-21T11:46:03.354Z,27.33
2018-07-21T11:47:04.140Z,27.34
2018-07-21T11:48:04.907Z,27.35
2018-07-21T11:49:05.685Z,27.36
2018-07-21T11:50:06.490Z,27.37
2018-07-21T11:51:07.267Z,27.38
2018-07-21T11:52:08.041Z,27.38
2018-07-21T11:53:09.811Z,27.38
2018-07-21T11:54:09.591Z,27.38
2018-07-21T11:55:10.401Z,27.38
2018-07-21T11:56:11.175Z,27.39
2018-07-21T11:57:11.961Z,27.39
2018-07-21T11:58:12.728Z,27.40
2018-07-21T11:59:13.567Z,27.42
2018-07-21T12:00:13.314Z,27.43
2018-07-21T12:01:15.090Z,27.45
2018-07-21T12:02:15.863Z,27.47
2018-07-21T12:03:16.640Z,27.50
2018-07-21T12:04:17.421Z,27.52
2018-07-21T12:05:18.289Z,27.55
2018-07-21T12:06:18.003Z,27.59
2018-07-21T12:07:19.779Z,27.63
2018-07-21T12:08:20.981Z,27.68
2018-07-21T12:09:21.248Z,27.72
2018-07-21T12:10:20.564Z,27.77
2018-07-21T12:11:29.819Z,28.54
2018-07-21T12:12:30.678Z,28.53
2018-07-21T12:13:30.430Z,28.54
2018-07-21T12:14:31.200Z,28.55
2018-07-21T12:15:31.957Z,28.57
2018-07-21T12:16:33.737Z,28.59
2018-07-21T12:17:34.610Z,28.62
2018-07-21T12:18:34.303Z,28.66
2018-07-21T12:19:36.085Z,28.69
2018-07-21T12:20:36.891Z,28.73
2018-07-21T12:21:37.667Z,28.76
2018-07-21T12:22:38.441Z,28.79
2018-07-21T12:23:38.218Z,28.82
2018-07-21T12:24:39.991Z,28.85
2018-07-21T12:25:40.800Z,28.87
2018-07-21T12:26:41.582Z,28.89
2018-07-21T12:27:42.347Z,28.90
2018-07-21T12:28:43.130Z,28.91
2018-07-21T12:29:43.899Z,28.92
2018-07-21T12:30:44.701Z,28.93
2018-07-21T12:31:45.480Z,28.95
2018-07-21T12:32:46.254Z,28.97
2018-07-21T12:33:47.147Z,28.99
2018-07-21T12:34:46.805Z,29.01
2018-07-21T12:35:48.611Z,29.03
2018-07-21T12:36:49.387Z,29.04
2018-07-21T12:37:50.166Z,29.07
2018-07-21T12:38:50.939Z,29.09
2018-07-21T12:39:51.717Z,29.12
2018-07-21T12:40:52.536Z,29.14
2018-07-21T12:41:53.298Z,29.16
2018-07-21T12:42:54.081Z,29.19
2018-07-21T12:43:54.852Z,29.21
2018-07-21T12:44:55.651Z,29.23
2018-07-21T12:45:55.436Z,29.25
2018-07-21T12:46:57.214Z,29.26
2018-07-21T12:47:57.994Z,29.26
2018-07-21T12:48:58.769Z,29.25
2018-07-21T12:49:59.562Z,29.24
2018-07-21T12:51:00.357Z,29.23
2018-07-21T12:52:01.129Z,29.20
2018-07-21T12:53:01.907Z,29.17
2018-07-21T12:54:02.680Z,29.14
2018-07-21T12:55:03.457Z,29.11
2018-07-21T12:56:04.265Z,29.08
2018-07-21T12:57:05.035Z,29.05
2018-07-21T12:58:05.833Z,29.03
2018-07-21T12:59:06.602Z,29.01
2018-07-21T13:00:07.381Z,28.99
2018-07-21T13:01:08.187Z,28.97
2018-07-21T13:02:08.963Z,28.94
2018-07-21T13:03:08.746Z,28.89
2018-07-21T13:04:10.515Z,28.85
2018-07-21T13:05:11.296Z,28.80
2018-07-21T13:06:12.099Z,28.74
2018-07-21T13:07:12.887Z,28.70
2018-07-21T13:08:13.656Z,28.66
2018-07-21T13:09:14.435Z,28.63
2018-07-21T13:10:15.206Z,28.59
2018-07-21T13:11:16.009Z,28.56
2018-07-21T13:12:16.785Z,28.53
2018-07-21T13:13:17.569Z,28.51
2018-07-21T13:14:18.345Z,28.50
2018-07-21T13:15:19.121Z,28.50
2018-07-21T13:16:19.925Z,28.51
2018-07-21T13:17:20.698Z,28.53
2018-07-21T13:18:21.480Z,28.56
2018-07-21T13:19:22.260Z,28.59
2018-07-21T13:20:23.031Z,28.63
2018-07-21T13:21:23.836Z,28.67
2018-07-21T13:22:24.613Z,28.71
2018-07-21T13:23:25.390Z,28.76
2018-07-21T13:24:26.171Z,28.82
2018-07-21T13:25:26.963Z,28.88